BAW890 EGLL-UGTB

Flight info

Callsign BAW890
Flight time 4h 21m
Altitude 37000
Route DET2F DET L6 DVR UL9 KONAN DCT KOK DCT MATUG DCT AMASI DCT BOMBI DCT TENLO DCT DEXIT DCT PESAT DCT DEGET/N0455F390 DCT UDROS UN743 GAKSU UT310 SIN UN644 ROLIN N644 LAGAS LAGAS1A
Aircraft A20N/M-SDGHIJ1LRWXY/SB1

Departure

Time 2026-04-09 20:51
Airport London Heathrow Airport (EGLL)

Arrival

Time 2026-04-10 01:13
Airport Tbilisi International Airport (UGTB)
Time Latitude Longitude Altitude Speed Heading
2026-04-09 20:18 51.46916 -0.48212 86 ft 0 kts 89°
2026-04-09 20:18 51.46916 -0.48219 86 ft 0 kts 89°
2026-04-09 20:38 51.46916 -0.48236 89 ft 4 kts 89°
2026-04-09 20:38 51.46915 -0.48279 86 ft 4 kts 89°
2026-04-09 20:38 51.46915 -0.48321 86 ft 4 kts 74°
2026-04-09 20:38 51.46902 -0.48352 90 ft 4 kts 13°
2026-04-09 20:39 51.46881 -0.48354 86 ft 4 kts 359°
2026-04-09 20:39 51.46876 -0.48354 88 ft 0 kts 359°
2026-04-09 20:41 51.46882 -0.48354 86 ft 3 kts
2026-04-09 20:41 51.46916 -0.48356 86 ft 7 kts 357°
2026-04-09 20:41 51.46973 -0.48356 87 ft 10 kts
2026-04-09 20:42 51.47050 -0.48356 87 ft 13 kts
2026-04-09 20:42 51.47146 -0.48356 89 ft 15 kts
2026-04-09 20:42 51.47256 -0.48357 88 ft 16 kts 359°
2026-04-09 20:42 51.47372 -0.48359 86 ft 17 kts 359°
2026-04-09 20:43 51.47473 -0.48343 88 ft 12 kts 39°
2026-04-09 20:43 51.47488 -0.48223 87 ft 11 kts 90°
2026-04-09 20:43 51.47489 -0.48110 87 ft 10 kts 89°
2026-04-09 20:43 51.47489 -0.47983 86 ft 13 kts 90°
2026-04-09 20:44 51.47490 -0.47833 86 ft 14 kts 89°
2026-04-09 20:44 51.47490 -0.47664 86 ft 16 kts 89°
2026-04-09 20:44 51.47491 -0.47476 86 ft 17 kts 90°
2026-04-09 20:44 51.47492 -0.47274 86 ft 19 kts 90°
2026-04-09 20:45 51.47492 -0.47062 86 ft 20 kts 89°
2026-04-09 20:45 51.47495 -0.46838 86 ft 20 kts 89°
2026-04-09 20:45 51.47516 -0.46660 86 ft 16 kts 91°
2026-04-09 20:45 51.47516 -0.46482 86 ft 17 kts 90°
2026-04-09 20:46 51.47516 -0.46282 86 ft 19 kts 89°
2026-04-09 20:46 51.47519 -0.46057 86 ft 21 kts 87°
2026-04-09 20:46 51.47518 -0.45809 86 ft 23 kts 95°
2026-04-09 20:46 51.47510 -0.45561 90 ft 23 kts 89°
2026-04-09 20:47 51.47508 -0.45302 88 ft 23 kts 89°
2026-04-09 20:47 51.47511 -0.45065 87 ft 21 kts 90°
2026-04-09 20:47 51.47511 -0.44824 89 ft 23 kts 90°
2026-04-09 20:47 51.47504 -0.44600 87 ft 18 kts 97°
2026-04-09 20:48 51.47504 -0.44383 87 ft 21 kts 89°
2026-04-09 20:48 51.47505 -0.44143 87 ft 23 kts 90°
2026-04-09 20:48 51.47506 -0.43890 89 ft 16 kts 89°
2026-04-09 20:48 51.47479 -0.43759 88 ft 11 kts 163°
2026-04-09 20:49 51.47454 -0.43686 86 ft 8 kts 89°
2026-04-09 20:49 51.47454 -0.43584 86 ft 10 kts 90°
2026-04-09 20:49 51.47459 -0.43456 86 ft 11 kts 63°
2026-04-09 20:49 51.47533 -0.43422 89 ft 12 kts
2026-04-09 20:50 51.47620 -0.43421 90 ft 13 kts 359°
2026-04-09 20:50 51.47717 -0.43423 90 ft 14 kts 359°
2026-04-09 20:50 51.47768 -0.43506 89 ft 11 kts 271°
2026-04-09 20:50 51.47768 -0.43565 90 ft 16 kts 270°
2026-04-09 20:51 51.47766 -0.44091 87 ft 79 kts 269°
2026-04-09 20:51 51.47763 -0.45264 86 ft 129 kts 269°
2026-04-09 20:51 51.47753 -0.46900 253 ft 153 kts 271°
2026-04-09 20:51 51.47724 -0.48591 834 ft 152 kts 270°
2026-04-09 20:52 51.47680 -0.50313 1398 ft 159 kts 271°
2026-04-09 20:52 51.47622 -0.52142 1864 ft 170 kts 272°
2026-04-09 20:52 51.47287 -0.54050 2282 ft 201 kts 242°
2026-04-09 20:52 51.46113 -0.55580 2699 ft 239 kts 208°
2026-04-09 20:53 51.44361 -0.56003 3153 ft 274 kts 179°
2026-04-09 20:53 51.42500 -0.55014 3872 ft 290 kts 150°
2026-04-09 20:53 51.40998 -0.52821 4767 ft 297 kts 130°
2026-04-09 20:53 51.39727 -0.50229 5774 ft 294 kts 129°
2026-04-09 20:54 51.38445 -0.47696 6807 ft 292 kts 133°
2026-04-09 20:54 51.37078 -0.45253 7598 ft 298 kts 136°
2026-04-09 20:54 51.35634 -0.42882 8314 ft 306 kts 138°
2026-04-09 20:54 51.34097 -0.40470 9075 ft 312 kts 139°
2026-04-09 20:55 51.32517 -0.38034 9809 ft 319 kts 139°
2026-04-09 20:55 51.31023 -0.35351 10450 ft 332 kts 123°
2026-04-09 20:55 51.30123 -0.31829 10695 ft 356 kts 99°
2026-04-09 20:55 51.30076 -0.27802 10916 ft 372 kts 76°
2026-04-09 20:56 51.30592 -0.23689 11411 ft 385 kts 81°
2026-04-09 20:56 51.30697 -0.19360 12001 ft 395 kts 88°
2026-04-09 20:56 51.30685 -0.14920 12587 ft 404 kts 89°
2026-04-09 20:56 51.30651 -0.10379 13173 ft 413 kts 90°
2026-04-09 20:57 51.30624 -0.05810 13784 ft 421 kts 90°
2026-04-09 20:57 51.30608 -0.01082 14327 ft 429 kts 90°
2026-04-09 20:57 51.30600 0.03669 15001 ft 427 kts 91°
2026-04-09 20:57 51.30595 0.08426 15652 ft 430 kts 91°
2026-04-09 20:58 51.30588 0.13217 16266 ft 433 kts 91°
2026-04-09 20:58 51.30580 0.18048 16898 ft 436 kts 92°
2026-04-09 20:58 51.30570 0.22901 17517 ft 438 kts 92°
2026-04-09 20:58 51.30557 0.27788 18139 ft 441 kts 92°
2026-04-09 20:59 51.30542 0.32646 18675 ft 444 kts 93°
2026-04-09 20:59 51.30525 0.37601 19189 ft 448 kts 93°
2026-04-09 20:59 51.30505 0.42597 19703 ft 452 kts 93°
2026-04-09 20:59 51.30483 0.47630 20223 ft 455 kts 93°
2026-04-09 21:00 51.30458 0.52698 20790 ft 457 kts 93°
2026-04-09 21:00 51.30362 0.57778 21323 ft 458 kts 99°
2026-04-09 21:00 51.28978 0.67660 22360 ft 457 kts 112°
2026-04-09 21:01 51.28071 0.72557 22893 ft 461 kts 111°
2026-04-09 21:01 51.27178 0.77415 23413 ft 464 kts 111°
2026-04-09 21:01 51.26268 0.82370 23875 ft 467 kts 111°
2026-04-09 21:01 51.25347 0.87364 24296 ft 471 kts 111°
2026-04-09 21:02 51.24416 0.92400 24713 ft 475 kts 111°
2026-04-09 21:02 51.23475 0.97462 25161 ft 477 kts 111°
2026-04-09 21:02 51.22531 1.02536 25593 ft 479 kts 110°
2026-04-09 21:02 51.21577 1.07649 25933 ft 483 kts 110°
2026-04-09 21:03 51.20613 1.12800 26283 ft 486 kts 110°
2026-04-09 21:03 51.19655 1.17910 26626 ft 489 kts 110°
2026-04-09 21:03 51.18674 1.23126 26963 ft 493 kts 110°
2026-04-09 21:03 51.17686 1.28370 27301 ft 496 kts 109°
2026-04-09 21:04 51.16710 1.33659 27620 ft 500 kts 106°
2026-04-09 21:04 51.16095 1.39142 27933 ft 505 kts 96°
2026-04-09 21:04 51.15826 1.44729 28259 ft 506 kts 94°
2026-04-09 21:04 51.15569 1.50317 28706 ft 506 kts 94°
2026-04-09 21:05 51.15307 1.55849 28962 ft 510 kts 94°
2026-04-09 21:05 51.15033 1.61489 29247 ft 512 kts 94°
2026-04-09 21:05 51.14753 1.67156 29551 ft 514 kts 94°
2026-04-09 21:05 51.14469 1.72847 29823 ft 517 kts 94°
2026-04-09 21:06 51.14181 1.78554 30119 ft 519 kts 94°
2026-04-09 21:06 51.13888 1.84296 30373 ft 521 kts 94°
2026-04-09 21:06 51.13592 1.90057 30607 ft 523 kts 94°
2026-04-09 21:06 51.13295 1.95807 31074 ft 519 kts 95°
2026-04-09 21:07 51.12996 2.01532 31398 ft 519 kts 95°
2026-04-09 21:07 51.12697 2.07191 31705 ft 520 kts 96°
2026-04-09 21:07 51.12393 2.12916 32057 ft 519 kts 96°
2026-04-09 21:07 51.12086 2.18631 32396 ft 518 kts 96°
2026-04-09 21:08 51.11778 2.24331 32741 ft 517 kts 97°
2026-04-09 21:08 51.11467 2.30018 33065 ft 516 kts 97°
2026-04-09 21:08 51.11154 2.35695 33384 ft 514 kts 97°
2026-04-09 21:08 51.10839 2.41356 33766 ft 512 kts 97°
2026-04-09 21:09 51.10523 2.46981 34096 ft 510 kts 97°
2026-04-09 21:09 51.10204 2.52605 34311 ft 510 kts 97°
2026-04-09 21:09 51.09886 2.58144 34552 ft 509 kts 97°
2026-04-09 21:09 51.09529 2.63745 34788 ft 507 kts 101°
2026-04-09 21:10 51.08826 2.69216 35008 ft 504 kts 108°
2026-04-09 21:10 51.07921 2.74593 35208 ft 503 kts 108°
2026-04-09 21:10 51.07027 2.79968 35418 ft 503 kts 107°
2026-04-09 21:10 51.06136 2.85347 35637 ft 502 kts 107°
2026-04-09 21:11 51.05253 2.90682 36004 ft 497 kts 107°
2026-04-09 21:11 51.04371 2.95984 36238 ft 496 kts 107°
2026-04-09 21:11 51.03498 3.01209 36411 ft 495 kts 107°
2026-04-09 21:11 51.02613 3.06483 36576 ft 495 kts 107°
2026-04-09 21:12 51.01725 3.11758 36756 ft 494 kts 107°
2026-04-09 21:12 51.00834 3.17033 36922 ft 494 kts 107°
2026-04-09 21:12 50.99943 3.22288 37059 ft 493 kts 107°
2026-04-09 21:13 50.98158 3.32783 37062 ft 491 kts 106°
2026-04-09 21:13 50.96378 3.43180 37068 ft 488 kts 106°
2026-04-09 21:14 50.94601 3.53502 37070 ft 489 kts 107°
2026-04-09 21:14 50.92801 3.63899 37065 ft 489 kts 107°
2026-04-09 21:15 50.90994 3.74280 37067 ft 489 kts 107°
2026-04-09 21:15 50.89179 3.84644 37063 ft 486 kts 107°
2026-04-09 21:16 50.87375 3.94878 37059 ft 486 kts 107°
2026-04-09 21:16 50.85549 4.05179 37056 ft 486 kts 107°
2026-04-09 21:17 50.83714 4.15474 37056 ft 486 kts 107°
2026-04-09 21:17 50.81870 4.25768 37053 ft 486 kts 107°
2026-04-09 21:18 50.80030 4.35971 37049 ft 486 kts 107°
2026-04-09 21:18 50.78169 4.46232 37041 ft 486 kts 107°
2026-04-09 21:19 50.76300 4.56490 37047 ft 486 kts 107°
2026-04-09 21:19 50.74422 4.66738 37057 ft 486 kts 107°
2026-04-09 21:20 50.72545 4.76918 37060 ft 487 kts 107°
2026-04-09 21:20 50.70645 4.87170 37058 ft 487 kts 107°
2026-04-09 21:21 50.68736 4.97409 37057 ft 487 kts 107°
2026-04-09 21:21 50.66815 5.07661 37058 ft 488 kts 107°
2026-04-09 21:22 50.64898 5.17830 37049 ft 486 kts 107°
2026-04-09 21:22 50.62972 5.27994 37048 ft 484 kts 107°
2026-04-09 21:23 50.61034 5.38167 37046 ft 485 kts 107°
2026-04-09 21:23 50.59089 5.48322 37048 ft 485 kts 108°
2026-04-09 21:24 50.57148 5.58404 37042 ft 485 kts 108°
2026-04-09 21:24 50.55183 5.68557 37053 ft 486 kts 108°
2026-04-09 21:25 50.53204 5.78722 37049 ft 486 kts 108°
2026-04-09 21:25 50.51216 5.88886 37051 ft 487 kts 108°
2026-04-09 21:26 50.49234 5.98967 37018 ft 485 kts 108°
2026-04-09 21:26 50.47235 6.09071 37036 ft 485 kts 108°
2026-04-09 21:27 50.45229 6.19167 37027 ft 485 kts 108°
2026-04-09 21:27 50.43229 6.29192 37034 ft 485 kts 108°
2026-04-09 21:28 50.41226 6.39279 37019 ft 485 kts 105°
2026-04-09 21:28 50.39790 6.49602 37016 ft 485 kts 101°
2026-04-09 21:29 50.38465 6.59965 37008 ft 485 kts 101°
2026-04-09 21:29 50.37054 6.70295 37024 ft 485 kts 102°
2026-04-09 21:30 50.35615 6.80554 37029 ft 485 kts 102°
2026-04-09 21:30 50.34155 6.90866 37041 ft 486 kts 102°
2026-04-09 21:31 50.32683 7.01194 37050 ft 486 kts 102°
2026-04-09 21:31 50.31213 7.11454 37055 ft 486 kts 102°
2026-04-09 21:32 50.29725 7.21759 37054 ft 486 kts 102°
2026-04-09 21:32 50.28227 7.32068 37054 ft 486 kts 102°
2026-04-09 21:33 50.26720 7.42365 37049 ft 484 kts 102°
2026-04-09 21:33 50.25215 7.52587 37054 ft 483 kts 102°
2026-04-09 21:34 50.23710 7.62748 37056 ft 483 kts 102°
2026-04-09 21:34 50.22188 7.72974 37056 ft 483 kts 102°
2026-04-09 21:35 50.20661 7.83179 37062 ft 483 kts 102°
2026-04-09 21:35 50.19121 7.93393 37063 ft 483 kts 102°
2026-04-09 21:36 50.17574 8.03598 37059 ft 483 kts 102°
2026-04-09 21:36 50.16029 8.13725 37052 ft 483 kts 102°
2026-04-09 21:37 50.14463 8.23917 37055 ft 484 kts 102°
2026-04-09 21:37 50.12884 8.34119 37060 ft 483 kts 102°
2026-04-09 21:38 50.11313 8.44227 37046 ft 484 kts 102°
2026-04-09 21:38 50.09723 8.54392 37047 ft 483 kts 102°
2026-04-09 21:39 50.08123 8.64549 37046 ft 483 kts 102°
2026-04-09 21:39 50.06514 8.74702 37052 ft 483 kts 102°
2026-04-09 21:40 50.04622 8.84653 37054 ft 483 kts 108°
2026-04-09 21:40 50.02393 8.94510 37056 ft 483 kts 108°
2026-04-09 21:41 50.00170 9.04375 37067 ft 483 kts 108°
2026-04-09 21:41 49.97934 9.14220 37091 ft 483 kts 108°
2026-04-09 21:42 49.95684 9.24061 37093 ft 484 kts 108°
2026-04-09 21:42 49.93442 9.33834 37096 ft 484 kts 108°
2026-04-09 21:43 49.91175 9.43666 37096 ft 484 kts 108°
2026-04-09 21:43 49.88900 9.53489 37098 ft 484 kts 108°
2026-04-09 21:44 49.86631 9.63232 37088 ft 484 kts 108°
2026-04-09 21:44 49.84340 9.73037 37085 ft 484 kts 108°
2026-04-09 21:45 49.82039 9.82836 37090 ft 484 kts 108°
2026-04-09 21:45 49.79728 9.92634 37087 ft 484 kts 108°
2026-04-09 21:46 49.77407 10.02425 37086 ft 485 kts 107°
2026-04-09 21:46 49.75091 10.12152 37070 ft 485 kts 107°
2026-04-09 21:47 49.72755 10.21926 37101 ft 485 kts 108°
2026-04-09 21:47 49.70407 10.31705 37092 ft 485 kts 108°
2026-04-09 21:48 49.68048 10.41481 37117 ft 486 kts 108°
2026-04-09 21:48 49.65695 10.51187 37105 ft 486 kts 107°
2026-04-09 21:49 49.63318 10.60958 37100 ft 486 kts 107°
2026-04-09 21:49 49.60932 10.70720 37100 ft 486 kts 107°
2026-04-09 21:50 49.58538 10.80467 37105 ft 486 kts 107°
2026-04-09 21:50 49.56148 10.90153 37093 ft 487 kts 107°
2026-04-09 21:51 49.53736 10.99894 37091 ft 487 kts 107°
2026-04-09 21:51 49.51184 11.09552 37083 ft 487 kts 109°
2026-04-09 21:52 49.48582 11.19166 37078 ft 487 kts 109°
2026-04-09 21:52 49.45994 11.28716 37136 ft 487 kts 108°
2026-04-09 21:53 49.43371 11.38306 37120 ft 487 kts 109°
2026-04-09 21:53 49.40736 11.47885 37120 ft 487 kts 109°
2026-04-09 21:54 49.38093 11.57447 37103 ft 486 kts 109°
2026-04-09 21:54 49.35463 11.66925 37128 ft 487 kts 108°
2026-04-09 21:55 49.32802 11.76474 37092 ft 487 kts 108°
2026-04-09 21:55 49.30136 11.86012 37091 ft 487 kts 108°
2026-04-09 21:56 49.27463 11.95534 37093 ft 487 kts 108°
2026-04-09 21:56 49.24779 12.05053 37108 ft 487 kts 108°
2026-04-09 21:57 49.22104 12.14495 37113 ft 487 kts 108°
2026-04-09 21:57 49.19401 12.24009 37113 ft 488 kts 108°
2026-04-09 21:58 49.16690 12.33515 37118 ft 488 kts 108°
2026-04-09 21:58 49.13967 12.43020 37122 ft 488 kts 108°
2026-04-09 21:59 49.11251 12.52459 37124 ft 488 kts 108°
2026-04-09 21:59 49.08520 12.61917 37124 ft 487 kts 108°
2026-04-09 22:00 49.05781 12.71372 37128 ft 487 kts 108°
2026-04-09 22:00 49.03051 12.80757 37114 ft 488 kts 108°
2026-04-09 22:01 49.00292 12.90202 37135 ft 488 kts 108°
2026-04-09 22:01 48.97528 12.99626 37134 ft 487 kts 108°
2026-04-09 22:02 48.94757 13.09038 37126 ft 487 kts 108°
2026-04-09 22:02 48.92002 13.18359 37122 ft 486 kts 108°
2026-04-09 22:03 48.89222 13.27730 37128 ft 487 kts 108°
2026-04-09 22:03 48.86432 13.37098 37128 ft 486 kts 108°
2026-04-09 22:04 48.83640 13.46441 37134 ft 486 kts 108°
2026-04-09 22:04 48.80862 13.55696 37123 ft 485 kts 108°
2026-04-09 22:05 48.78060 13.65004 37167 ft 485 kts 108°
2026-04-09 22:05 48.73880 13.78982 37124 ft 485 kts 107°
2026-04-09 22:06 48.71145 13.88322 37123 ft 485 kts 108°
2026-04-09 22:06 48.68420 13.97589 37130 ft 485 kts 108°
2026-04-09 22:07 48.65659 14.06915 37123 ft 487 kts 108°
2026-04-09 22:07 48.62877 14.16262 37127 ft 487 kts 108°
2026-04-09 22:08 48.60088 14.25599 37129 ft 488 kts 108°
2026-04-09 22:08 48.57305 14.34880 37132 ft 489 kts 108°
2026-04-09 22:09 48.54492 14.44224 37168 ft 490 kts 108°
2026-04-09 22:09 48.51671 14.53559 37140 ft 487 kts 108°
2026-04-09 22:10 48.48853 14.62851 37139 ft 488 kts 108°
2026-04-09 22:10 48.46040 14.72091 37132 ft 488 kts 108°
2026-04-09 22:11 48.43203 14.81375 37165 ft 488 kts 108°
2026-04-09 22:11 48.40366 14.90625 37129 ft 485 kts 109°
2026-04-09 22:12 48.37540 14.99805 37124 ft 483 kts 109°
2026-04-09 22:12 48.34698 15.09010 37143 ft 488 kts 109°
2026-04-09 22:13 48.31855 15.18174 37148 ft 487 kts 109°
2026-04-09 22:13 48.28988 15.27389 37153 ft 487 kts 109°
2026-04-09 22:14 48.26114 15.36590 37151 ft 487 kts 109°
2026-04-09 22:14 48.23247 15.45731 37162 ft 488 kts 109°
2026-04-09 22:15 48.20353 15.54923 37160 ft 487 kts 110°
2026-04-09 22:15 48.17451 15.64113 37156 ft 487 kts 110°
2026-04-09 22:16 48.14549 15.73263 37167 ft 486 kts 110°
2026-04-09 22:16 48.11641 15.82403 37168 ft 487 kts 110°
2026-04-09 22:17 48.08744 15.91475 37174 ft 487 kts 110°
2026-04-09 22:17 48.05821 16.00593 37166 ft 485 kts 110°
2026-04-09 22:18 48.02902 16.09666 37145 ft 484 kts 110°
2026-04-09 22:18 48.00003 16.18646 37140 ft 483 kts 110°
2026-04-09 22:19 47.97084 16.27657 37159 ft 484 kts 110°
2026-04-09 22:19 47.94131 16.36745 37159 ft 486 kts 111°
2026-04-09 22:20 47.91179 16.45791 37158 ft 486 kts 111°
2026-04-09 22:20 47.88216 16.54839 37158 ft 486 kts 111°
2026-04-09 22:21 47.85267 16.63813 37152 ft 486 kts 111°
2026-04-09 22:21 47.82284 16.72862 37162 ft 488 kts 111°
2026-04-09 22:22 47.79288 16.81913 37153 ft 486 kts 111°
2026-04-09 22:22 47.76295 16.90922 37150 ft 486 kts 111°
2026-04-09 22:23 47.73318 16.99867 37153 ft 486 kts 111°
2026-04-09 22:23 47.70374 17.08904 37150 ft 484 kts 107°
2026-04-09 22:24 47.67954 17.18182 37148 ft 482 kts 105°
2026-04-09 22:24 47.65564 17.27481 37146 ft 483 kts 106°
2026-04-09 22:25 47.63120 17.36688 37141 ft 483 kts 106°
2026-04-09 22:25 47.60627 17.45951 37137 ft 485 kts 106°
2026-04-09 22:26 47.58119 17.55225 37134 ft 485 kts 106°
2026-04-09 22:26 47.55602 17.64496 37133 ft 485 kts 107°
2026-04-09 22:27 47.53096 17.73696 37134 ft 486 kts 107°
2026-04-09 22:27 47.50562 17.82959 37143 ft 487 kts 107°
2026-04-09 22:28 47.48013 17.92240 37140 ft 487 kts 107°
2026-04-09 22:28 47.45456 18.01513 37139 ft 487 kts 107°
2026-04-09 22:29 47.42908 18.10719 37142 ft 488 kts 107°
2026-04-09 22:29 47.40333 18.19986 37140 ft 489 kts 107°
2026-04-09 22:30 47.37744 18.29266 37133 ft 489 kts 107°
2026-04-09 22:30 47.35146 18.38542 37134 ft 489 kts 107°
2026-04-09 22:31 47.32561 18.47738 37134 ft 489 kts 107°
2026-04-09 22:31 47.29948 18.56999 37128 ft 490 kts 107°
2026-04-09 22:32 47.27323 18.66264 37123 ft 490 kts 107°
2026-04-09 22:32 47.24708 18.75461 37124 ft 490 kts 107°
2026-04-09 22:33 47.22068 18.84714 37126 ft 491 kts 107°
2026-04-09 22:33 47.19416 18.93968 37128 ft 492 kts 107°
2026-04-09 22:34 47.16753 19.03229 37137 ft 492 kts 107°
2026-04-09 22:34 47.14084 19.12475 37133 ft 492 kts 107°
2026-04-09 22:35 47.11423 19.21656 37127 ft 492 kts 107°
2026-04-09 22:35 47.08737 19.30892 37129 ft 493 kts 108°
2026-04-09 22:36 47.06038 19.40136 37130 ft 493 kts 108°
2026-04-09 22:36 47.03331 19.49371 37130 ft 493 kts 108°
2026-04-09 22:37 47.00635 19.58535 37133 ft 493 kts 108°
2026-04-09 22:37 46.97914 19.67755 37140 ft 493 kts 108°
2026-04-09 22:38 46.95182 19.76973 37135 ft 493 kts 108°
2026-04-09 22:38 46.92445 19.86171 37132 ft 493 kts 108°
2026-04-09 22:39 46.89722 19.95291 37129 ft 493 kts 108°
2026-04-09 22:39 46.86973 20.04465 37113 ft 493 kts 108°
2026-04-09 22:40 46.84217 20.13627 37111 ft 493 kts 108°
2026-04-09 22:40 46.81455 20.22776 37109 ft 492 kts 108°
2026-04-09 22:41 46.78704 20.31855 37109 ft 492 kts 108°
2026-04-09 22:41 46.75926 20.40991 37109 ft 493 kts 109°
2026-04-09 22:42 46.73139 20.50123 37108 ft 493 kts 109°
2026-04-09 22:42 46.70345 20.59246 37110 ft 493 kts 109°
2026-04-09 22:43 46.67539 20.68371 37124 ft 494 kts 109°
2026-04-09 22:43 46.64739 20.77447 37110 ft 495 kts 109°
2026-04-09 22:44 46.61910 20.86584 37113 ft 496 kts 109°
2026-04-09 22:44 46.59069 20.95723 37113 ft 496 kts 109°
2026-04-09 22:45 46.56220 21.04857 37155 ft 496 kts 109°
2026-04-09 22:45 46.53378 21.13946 37112 ft 497 kts 109°
2026-04-09 22:46 46.50513 21.23084 37115 ft 497 kts 109°
2026-04-09 22:46 46.47476 21.32131 37111 ft 499 kts 112°
2026-04-09 22:47 46.44432 21.41092 37139 ft 499 kts 111°
2026-04-09 22:47 46.42905 21.45618 37295 ft 499 kts 111°
2026-04-09 22:47 46.41378 21.50127 37503 ft 498 kts 112°
2026-04-09 22:48 46.39849 21.54629 37693 ft 498 kts 112°
2026-04-09 22:48 46.38319 21.59121 37860 ft 497 kts 112°
2026-04-09 22:48 46.36785 21.63615 38021 ft 497 kts 112°
2026-04-09 22:48 46.35254 21.68093 38184 ft 497 kts 112°
2026-04-09 22:49 46.33719 21.72574 38334 ft 496 kts 112°
2026-04-09 22:49 46.32185 21.77044 38503 ft 496 kts 112°
2026-04-09 22:49 46.30671 21.81448 38635 ft 496 kts 112°
2026-04-09 22:49 46.29133 21.85910 38766 ft 496 kts 113°
2026-04-09 22:50 46.27592 21.90369 38882 ft 495 kts 113°
2026-04-09 22:50 46.26050 21.94819 38994 ft 495 kts 113°
2026-04-09 22:50 46.22964 22.03703 39112 ft 495 kts 113°
2026-04-09 22:51 46.19902 22.12490 39118 ft 491 kts 113°
2026-04-09 22:51 46.16827 22.21282 39116 ft 491 kts 113°
2026-04-09 22:52 46.13737 22.30089 39117 ft 492 kts 113°
2026-04-09 22:52 46.10643 22.38879 39116 ft 492 kts 114°
2026-04-09 22:53 46.07570 22.47583 39109 ft 489 kts 114°
2026-04-09 22:53 46.04486 22.56284 39094 ft 487 kts 114°
2026-04-09 22:54 46.01404 22.64956 39117 ft 488 kts 114°
2026-04-09 22:54 45.98293 22.73681 39140 ft 491 kts 114°
2026-04-09 22:55 45.95186 22.82368 39111 ft 492 kts 114°
2026-04-09 22:55 45.92048 22.91105 39107 ft 492 kts 114°
2026-04-09 22:56 45.88904 22.99837 39103 ft 492 kts 114°
2026-04-09 22:56 45.85753 23.08557 39112 ft 493 kts 115°
2026-04-09 22:57 45.82614 23.17219 39107 ft 493 kts 115°
2026-04-09 22:57 45.79444 23.25934 39088 ft 493 kts 115°
2026-04-09 22:58 45.76267 23.34643 39092 ft 494 kts 115°
2026-04-09 22:58 45.73079 23.43354 39107 ft 494 kts 115°
2026-04-09 22:59 45.69906 23.51998 39107 ft 494 kts 115°
2026-04-09 22:59 45.66703 23.60694 39108 ft 494 kts 115°
2026-04-09 23:00 45.63493 23.69381 39107 ft 494 kts 115°
2026-04-09 23:00 45.60278 23.78052 39107 ft 494 kts 115°
2026-04-09 23:01 45.57075 23.86663 39097 ft 493 kts 115°
2026-04-09 23:01 45.53856 23.95291 39097 ft 493 kts 115°
2026-04-09 23:02 45.50627 24.03920 39104 ft 493 kts 115°
2026-04-09 23:02 45.47400 24.12517 39091 ft 492 kts 116°
2026-04-09 23:03 45.44184 24.21057 39087 ft 493 kts 116°
2026-04-09 23:03 45.40935 24.29657 39089 ft 493 kts 116°
2026-04-09 23:04 45.37676 24.38256 39082 ft 493 kts 116°
2026-04-09 23:04 45.34419 24.46821 39077 ft 492 kts 116°
2026-04-09 23:05 45.31179 24.55320 39078 ft 493 kts 116°
2026-04-09 23:05 45.27909 24.63869 39071 ft 493 kts 116°
2026-04-09 23:06 45.24622 24.72435 39078 ft 493 kts 116°
2026-04-09 23:06 45.21337 24.80969 39075 ft 493 kts 116°
2026-04-09 23:07 45.16417 24.93703 39070 ft 493 kts 116°
2026-04-09 23:08 45.13116 25.02215 39074 ft 493 kts 117°
2026-04-09 23:08 45.09802 25.10733 39085 ft 494 kts 117°
2026-04-09 23:09 45.06502 25.19188 39075 ft 494 kts 117°
2026-04-09 23:09 45.03171 25.27698 39070 ft 495 kts 117°
2026-04-09 23:10 44.99833 25.36200 39079 ft 495 kts 117°
2026-04-09 23:10 44.96490 25.44689 39081 ft 495 kts 117°
2026-04-09 23:11 44.93161 25.53114 39085 ft 494 kts 117°
2026-04-09 23:11 44.89809 25.61576 39086 ft 494 kts 117°
2026-04-09 23:12 44.86465 25.69989 39077 ft 491 kts 117°
2026-04-09 23:12 44.83117 25.78388 39083 ft 492 kts 117°
2026-04-09 23:13 44.79784 25.86724 39090 ft 492 kts 117°
2026-04-09 23:13 44.76427 25.95097 39102 ft 490 kts 118°
2026-04-09 23:14 44.73068 26.03447 39092 ft 491 kts 118°
2026-04-09 23:14 44.69692 26.11816 39104 ft 493 kts 118°
2026-04-09 23:15 44.66318 26.20154 39117 ft 494 kts 118°
2026-04-09 23:15 44.62937 26.28485 39116 ft 489 kts 118°
2026-04-09 23:16 44.59555 26.36793 39113 ft 491 kts 118°
2026-04-09 23:16 44.56164 26.45102 39113 ft 490 kts 118°
2026-04-09 23:17 44.52793 26.53337 39109 ft 490 kts 118°
2026-04-09 23:17 44.49401 26.61597 39103 ft 488 kts 118°
2026-04-09 23:18 44.46013 26.69825 39098 ft 488 kts 118°
2026-04-09 23:18 44.42642 26.77987 39095 ft 487 kts 118°
2026-04-09 23:19 44.39249 26.86178 39087 ft 487 kts 118°
2026-04-09 23:19 44.35850 26.94360 39086 ft 487 kts 118°
2026-04-09 23:20 44.32446 27.02532 39084 ft 487 kts 119°
2026-04-09 23:20 44.29059 27.10641 39091 ft 487 kts 119°
2026-04-09 23:21 44.25645 27.18790 39091 ft 487 kts 119°
2026-04-09 23:21 44.22221 27.26939 39088 ft 487 kts 119°
2026-04-09 23:22 44.19370 27.33707 39079 ft 487 kts 119°
2026-04-09 23:22 44.15374 27.43167 39087 ft 488 kts 119°
2026-04-09 23:23 44.11925 27.51306 39085 ft 489 kts 120°
2026-04-09 23:23 44.09049 27.58074 39088 ft 489 kts 120°
2026-04-09 23:24 44.05578 27.66223 39089 ft 490 kts 120°
2026-04-09 23:24 44.01545 27.75663 39081 ft 487 kts 120°
2026-04-09 23:25 43.98078 27.83751 39084 ft 488 kts 120°
2026-04-09 23:25 43.95191 27.90471 39074 ft 488 kts 120°
2026-04-09 23:26 43.91145 27.99861 39077 ft 487 kts 120°
2026-04-09 23:26 43.88234 28.06598 39070 ft 486 kts 120°
2026-04-09 23:27 43.84775 28.14582 39073 ft 486 kts 120°
2026-04-09 23:27 43.81289 28.22608 39071 ft 486 kts 120°
2026-04-09 23:28 43.77794 28.30632 39077 ft 486 kts 121°
2026-04-09 23:28 43.74298 28.38635 39075 ft 486 kts 121°
2026-04-09 23:29 43.70816 28.46583 39072 ft 486 kts 121°
2026-04-09 23:29 43.67309 28.54569 39062 ft 486 kts 121°
2026-04-09 23:30 43.63797 28.62542 39076 ft 486 kts 121°
2026-04-09 23:30 43.60279 28.70506 39076 ft 486 kts 121°
2026-04-09 23:31 43.56777 28.78415 39079 ft 486 kts 121°
2026-04-09 23:31 43.53244 28.86373 39079 ft 487 kts 121°
2026-04-09 23:32 43.49703 28.94323 39082 ft 487 kts 121°
2026-04-09 23:32 43.46154 29.02271 39082 ft 487 kts 121°
2026-04-09 23:33 43.42623 29.10157 39080 ft 488 kts 122°
2026-04-09 23:33 43.39060 29.18095 39079 ft 488 kts 122°
2026-04-09 23:34 43.35494 29.26018 39083 ft 488 kts 122°
2026-04-09 23:34 43.31917 29.33940 39080 ft 488 kts 122°
2026-04-09 23:35 43.28335 29.41858 39073 ft 488 kts 122°
2026-04-09 23:35 43.24772 29.49708 39077 ft 488 kts 122°
2026-04-09 23:36 43.21180 29.57602 39077 ft 488 kts 122°
2026-04-09 23:36 43.17581 29.65489 39073 ft 488 kts 122°
2026-04-09 23:37 43.14003 29.73311 39070 ft 488 kts 122°
2026-04-09 23:37 43.10397 29.81173 39065 ft 488 kts 122°
2026-04-09 23:38 43.06784 29.89028 39074 ft 488 kts 122°
2026-04-09 23:38 43.03167 29.96872 39067 ft 488 kts 123°
2026-04-09 23:39 42.99543 30.04710 39073 ft 488 kts 123°
2026-04-09 23:39 42.95939 30.12484 39072 ft 488 kts 123°
2026-04-09 23:40 42.92304 30.20306 39072 ft 488 kts 123°
2026-04-09 23:40 42.88671 30.28110 39070 ft 488 kts 123°
2026-04-09 23:41 42.85030 30.35915 39070 ft 488 kts 123°
2026-04-09 23:41 42.81413 30.43652 39070 ft 487 kts 123°
2026-04-09 23:42 42.77767 30.51432 39075 ft 487 kts 123°
2026-04-09 23:42 42.74324 30.59363 39070 ft 488 kts 114°
2026-04-09 23:43 42.72220 30.68048 39065 ft 487 kts 104°
2026-04-09 23:43 42.70497 30.76964 39066 ft 487 kts 104°
2026-04-09 23:44 42.68764 30.85865 39063 ft 487 kts 105°
2026-04-09 23:44 42.67015 30.94753 39066 ft 487 kts 105°
2026-04-09 23:45 42.65267 31.03580 39063 ft 487 kts 105°
2026-04-09 23:45 42.63503 31.12455 39062 ft 487 kts 105°
2026-04-09 23:46 42.61731 31.21329 39064 ft 487 kts 105°
2026-04-09 23:46 42.59953 31.30195 39063 ft 487 kts 105°
2026-04-09 23:47 42.58178 31.39001 39056 ft 487 kts 105°
2026-04-09 23:47 42.56387 31.47858 39063 ft 487 kts 105°
2026-04-09 23:48 42.54587 31.56715 39063 ft 487 kts 106°
2026-04-09 23:48 42.52781 31.65558 39062 ft 487 kts 106°
2026-04-09 23:49 42.50981 31.74341 39058 ft 487 kts 106°
2026-04-09 23:49 42.49163 31.83174 39061 ft 487 kts 106°
2026-04-09 23:50 42.47337 31.92004 39058 ft 487 kts 106°
2026-04-09 23:50 42.45516 32.00770 39055 ft 487 kts 106°
2026-04-09 23:51 42.43679 32.09586 39058 ft 487 kts 107°
2026-04-09 23:51 42.41833 32.18397 39057 ft 486 kts 107°
2026-04-09 23:52 42.39981 32.27204 39054 ft 486 kts 107°
2026-04-09 23:52 42.38136 32.35936 39056 ft 486 kts 107°
2026-04-09 23:53 42.36273 32.44720 39056 ft 486 kts 107°
2026-04-09 23:53 42.34405 32.53496 39055 ft 486 kts 107°
2026-04-09 23:54 42.32887 32.62387 39048 ft 486 kts 99°
2026-04-09 23:54 42.31896 32.71355 39049 ft 486 kts 99°
2026-04-09 23:55 42.30881 32.80380 39051 ft 486 kts 99°
2026-04-09 23:55 42.29852 32.89402 39047 ft 486 kts 99°
2026-04-09 23:56 42.28814 32.98419 39047 ft 486 kts 99°
2026-04-09 23:56 42.27777 33.07373 39038 ft 486 kts 99°
2026-04-09 23:57 42.26727 33.16380 39044 ft 486 kts 99°
2026-04-09 23:57 42.25668 33.25388 39047 ft 486 kts 99°
2026-04-09 23:58 42.24602 33.34399 39048 ft 486 kts 100°
2026-04-09 23:58 42.23537 33.43347 39047 ft 486 kts 100°
2026-04-09 23:59 42.22457 33.52356 39054 ft 487 kts 100°
2026-04-09 23:59 42.21368 33.61366 39055 ft 487 kts 100°
2026-04-10 00:00 42.20273 33.70376 39087 ft 487 kts 100°
2026-04-10 00:00 42.19177 33.79327 39048 ft 487 kts 101°
2026-04-10 00:01 42.18069 33.88336 39062 ft 487 kts 101°
2026-04-10 00:01 42.16953 33.97335 39060 ft 487 kts 101°
2026-04-10 00:02 42.15829 34.06341 39057 ft 487 kts 101°
2026-04-10 00:02 42.14705 34.15285 39049 ft 487 kts 101°
2026-04-10 00:03 42.13570 34.24269 39056 ft 487 kts 101°
2026-04-10 00:03 42.12427 34.33251 39057 ft 487 kts 101°
2026-04-10 00:04 42.11276 34.42238 39062 ft 487 kts 101°
2026-04-10 00:04 42.10084 34.51136 39050 ft 486 kts 102°
2026-04-10 00:05 42.08834 34.60076 39054 ft 486 kts 102°
2026-04-10 00:05 42.07585 34.69014 39054 ft 486 kts 102°
2026-04-10 00:06 42.06335 34.77941 39057 ft 485 kts 102°
2026-04-10 00:06 42.05089 34.86808 39049 ft 485 kts 102°
2026-04-10 00:07 42.03888 34.95735 39042 ft 485 kts 102°
2026-04-10 00:07 42.02700 35.04668 39044 ft 485 kts 102°
2026-04-10 00:08 42.01980 35.13699 39039 ft 487 kts 95°
2026-04-10 00:08 42.01514 35.22717 39029 ft 487 kts 96°
2026-04-10 00:09 42.01029 35.31795 39039 ft 487 kts 96°
2026-04-10 00:09 42.00534 35.40873 39034 ft 487 kts 96°
2026-04-10 00:10 42.00036 35.49889 39035 ft 487 kts 96°
2026-04-10 00:10 41.99528 35.58966 39036 ft 487 kts 96°
2026-04-10 00:11 41.99014 35.68039 39033 ft 487 kts 96°
2026-04-10 00:11 41.98491 35.77116 39035 ft 487 kts 96°
2026-04-10 00:12 41.97964 35.86139 39039 ft 487 kts 96°
2026-04-10 00:12 41.97428 35.95213 39044 ft 487 kts 96°
2026-04-10 00:13 41.96884 36.04295 39039 ft 487 kts 97°
2026-04-10 00:13 41.96332 36.13372 39040 ft 487 kts 97°
2026-04-10 00:14 41.95777 36.22383 39039 ft 487 kts 97°
2026-04-10 00:14 41.95212 36.31458 39041 ft 488 kts 97°
2026-04-10 00:15 41.94639 36.40532 39042 ft 487 kts 97°
2026-04-10 00:15 41.93762 36.54076 39040 ft 487 kts 97°
2026-04-10 00:16 41.93160 36.63143 39039 ft 487 kts 97°
2026-04-10 00:16 41.92563 36.72204 39038 ft 487 kts 97°
2026-04-10 00:17 41.91961 36.81264 39033 ft 487 kts 98°
2026-04-10 00:17 41.91356 36.90247 39034 ft 486 kts 98°
2026-04-10 00:18 41.90742 36.99289 39029 ft 486 kts 98°
2026-04-10 00:18 41.90190 37.08340 39029 ft 487 kts 94°
2026-04-10 00:19 41.90117 37.17446 39014 ft 488 kts 92°
2026-04-10 00:19 41.90060 37.26490 39025 ft 488 kts 93°
2026-04-10 00:20 41.89935 37.35597 39024 ft 488 kts 94°
2026-04-10 00:20 41.89785 37.44701 39026 ft 488 kts 94°
2026-04-10 00:21 41.89627 37.53807 39028 ft 488 kts 94°
2026-04-10 00:21 41.89464 37.62855 39024 ft 488 kts 94°
2026-04-10 00:22 41.89293 37.71965 39027 ft 489 kts 94°
2026-04-10 00:22 41.89119 37.81087 39026 ft 489 kts 94°
2026-04-10 00:23 41.88943 37.90208 39034 ft 489 kts 94°
2026-04-10 00:23 41.88754 37.99279 39035 ft 489 kts 94°
2026-04-10 00:24 41.88554 38.08398 39037 ft 489 kts 94°
2026-04-10 00:24 41.88345 38.17534 39035 ft 489 kts 94°
2026-04-10 00:25 41.88129 38.26662 39037 ft 490 kts 94°
2026-04-10 00:25 41.87907 38.35732 39040 ft 490 kts 94°
2026-04-10 00:26 41.87677 38.44858 39019 ft 489 kts 95°
2026-04-10 00:26 41.87440 38.53979 39027 ft 489 kts 95°
2026-04-10 00:27 41.87198 38.63106 39028 ft 490 kts 95°
2026-04-10 00:27 41.86949 38.72174 39030 ft 490 kts 95°
2026-04-10 00:28 41.86691 38.81301 39027 ft 490 kts 95°
2026-04-10 00:28 41.86424 38.90432 39024 ft 490 kts 95°
2026-04-10 00:29 41.86151 38.99559 39024 ft 490 kts 95°
2026-04-10 00:29 41.85871 39.08632 39032 ft 490 kts 95°
2026-04-10 00:30 41.85584 39.17769 39035 ft 490 kts 95°
2026-04-10 00:30 41.85288 39.26907 39035 ft 490 kts 95°
2026-04-10 00:31 41.84986 39.36032 39031 ft 490 kts 96°
2026-04-10 00:31 41.84679 39.45102 39035 ft 490 kts 96°
2026-04-10 00:32 41.84366 39.54238 39035 ft 490 kts 96°
2026-04-10 00:32 41.84041 39.63368 39034 ft 490 kts 96°
2026-04-10 00:33 41.83710 39.72498 39028 ft 490 kts 96°
2026-04-10 00:33 41.83375 39.81562 39027 ft 490 kts 96°
2026-04-10 00:34 41.83031 39.90681 39028 ft 490 kts 96°
2026-04-10 00:34 41.82680 39.99806 39029 ft 490 kts 96°
2026-04-10 00:35 41.82321 40.08930 39030 ft 490 kts 96°
2026-04-10 00:35 41.81958 40.18000 39023 ft 490 kts 97°
2026-04-10 00:36 41.81582 40.27126 39028 ft 491 kts 97°
2026-04-10 00:36 41.81200 40.36258 39031 ft 491 kts 97°
2026-04-10 00:37 41.80811 40.45393 39033 ft 491 kts 97°
2026-04-10 00:37 41.80417 40.54465 39029 ft 491 kts 97°
2026-04-10 00:38 41.80013 40.63601 39028 ft 491 kts 97°
2026-04-10 00:38 41.79587 40.72738 39031 ft 491 kts 97°
2026-04-10 00:39 41.79136 40.81859 39032 ft 491 kts 98°
2026-04-10 00:39 41.78685 40.90928 39034 ft 491 kts 98°
2026-04-10 00:40 41.78225 41.00048 39016 ft 490 kts 98°
2026-04-10 00:40 41.77759 41.09161 39019 ft 490 kts 98°
2026-04-10 00:41 41.77285 41.18264 39012 ft 490 kts 98°
2026-04-10 00:41 41.76807 41.27306 39011 ft 490 kts 98°
2026-04-10 00:42 41.76320 41.36404 38993 ft 490 kts 98°
2026-04-10 00:42 41.75827 41.45493 39014 ft 489 kts 99°
2026-04-10 00:43 41.75325 41.54577 39023 ft 489 kts 99°
2026-04-10 00:43 41.74820 41.63596 39018 ft 489 kts 99°
2026-04-10 00:44 41.74304 41.72676 39019 ft 489 kts 99°
2026-04-10 00:44 41.73782 41.81749 38996 ft 489 kts 99°
2026-04-10 00:45 41.73255 41.90768 38984 ft 489 kts 99°
2026-04-10 00:45 41.72715 41.99863 38981 ft 491 kts 99°
2026-04-10 00:46 41.72172 42.08971 38963 ft 491 kts 99°
2026-04-10 00:46 41.71617 42.18097 38956 ft 492 kts 99°
2026-04-10 00:47 41.71056 42.27172 38857 ft 493 kts 99°
2026-04-10 00:47 41.70773 42.31734 38474 ft 493 kts 99°
2026-04-10 00:47 41.70486 42.36318 37709 ft 495 kts 100°
2026-04-10 00:48 41.70195 42.40928 36855 ft 499 kts 100°
2026-04-10 00:48 41.69901 42.45563 35990 ft 502 kts 101°
2026-04-10 00:48 41.69602 42.50239 35129 ft 507 kts 101°
2026-04-10 00:48 41.69300 42.54953 34273 ft 510 kts 102°
2026-04-10 00:49 41.68998 42.59672 33534 ft 508 kts 102°
2026-04-10 00:49 41.68701 42.64294 32813 ft 504 kts 102°
2026-04-10 00:49 41.68398 42.68958 32088 ft 502 kts 102°
2026-04-10 00:49 41.68092 42.73602 31295 ft 502 kts 103°
2026-04-10 00:50 41.67782 42.78253 30482 ft 502 kts 103°
2026-04-10 00:50 41.67472 42.82903 29827 ft 498 kts 103°
2026-04-10 00:50 41.67167 42.87481 29263 ft 490 kts 103°
2026-04-10 00:50 41.66864 42.91989 28698 ft 483 kts 103°
2026-04-10 00:51 41.66561 42.96437 28125 ft 477 kts 103°
2026-04-10 00:51 41.66264 43.00764 27580 ft 470 kts 103°
2026-04-10 00:51 41.65965 43.05086 27025 ft 464 kts 103°
2026-04-10 00:51 41.65668 43.09351 26492 ft 458 kts 103°
2026-04-10 00:52 41.65371 43.13574 25942 ft 453 kts 103°
2026-04-10 00:52 41.65077 43.17740 25413 ft 448 kts 103°
2026-04-10 00:52 41.64785 43.21870 24874 ft 444 kts 103°
2026-04-10 00:52 41.64493 43.25960 24346 ft 440 kts 103°
2026-04-10 00:53 41.64203 43.30021 23816 ft 436 kts 103°
2026-04-10 00:53 41.63917 43.33984 23257 ft 433 kts 103°
2026-04-10 00:53 41.63630 43.37959 22725 ft 427 kts 103°
2026-04-10 00:53 41.63347 43.41885 22207 ft 421 kts 103°
2026-04-10 00:54 41.63065 43.45751 21691 ft 415 kts 103°
2026-04-10 00:54 41.62784 43.49563 21184 ft 410 kts 103°
2026-04-10 00:54 41.62507 43.53329 20693 ft 406 kts 103°
2026-04-10 00:54 41.62233 43.57067 20190 ft 402 kts 103°
2026-04-10 00:55 41.61959 43.60773 19693 ft 399 kts 103°
2026-04-10 00:55 41.61691 43.64403 19201 ft 396 kts 103°
2026-04-10 00:55 41.61420 43.68050 18705 ft 393 kts 103°
2026-04-10 00:55 41.61149 43.71682 18196 ft 392 kts 102°
2026-04-10 00:56 41.60879 43.75289 17692 ft 388 kts 102°
2026-04-10 00:56 41.60612 43.78849 17216 ft 383 kts 102°
2026-04-10 00:56 41.60347 43.82368 16726 ft 379 kts 102°
2026-04-10 00:56 41.60082 43.85842 16243 ft 373 kts 102°
2026-04-10 00:57 41.59818 43.89267 15768 ft 368 kts 102°
2026-04-10 00:57 41.59561 43.92602 15321 ft 364 kts 101°
2026-04-10 00:57 41.59304 43.95946 14856 ft 360 kts 101°
2026-04-10 00:57 41.59048 43.99260 14415 ft 357 kts 101°
2026-04-10 00:58 41.58792 44.02556 13832 ft 358 kts 101°
2026-04-10 00:58 41.58537 44.05839 13389 ft 353 kts 101°
2026-04-10 00:58 41.58286 44.09080 12946 ft 348 kts 101°
2026-04-10 00:58 41.58041 44.12228 12507 ft 345 kts 101°
2026-04-10 00:59 41.57789 44.15440 12050 ft 341 kts 101°
2026-04-10 00:59 41.57546 44.18532 11624 ft 337 kts 100°
2026-04-10 00:59 41.57301 44.21632 11202 ft 334 kts 100°
2026-04-10 00:59 41.56974 44.24728 10997 ft 344 kts 104°
2026-04-10 01:00 41.56543 44.27910 10969 ft 349 kts 103°
2026-04-10 01:00 41.56128 44.31095 10745 ft 349 kts 103°
2026-04-10 01:00 41.55720 44.34268 10467 ft 342 kts 103°
2026-04-10 01:00 41.55327 44.37333 10332 ft 328 kts 103°
2026-04-10 01:01 41.54947 44.40270 10202 ft 315 kts 103°
2026-04-10 01:01 41.54584 44.43054 10097 ft 302 kts 103°
2026-04-10 01:01 41.54228 44.45762 9985 ft 290 kts 103°
2026-04-10 01:01 41.53882 44.48402 9826 ft 289 kts 103°
2026-04-10 01:02 41.53535 44.51050 9459 ft 290 kts 103°
2026-04-10 01:02 41.53189 44.53700 9073 ft 289 kts 102°
2026-04-10 01:02 41.52846 44.56327 8704 ft 286 kts 102°
2026-04-10 01:02 41.52507 44.58922 8333 ft 283 kts 102°
2026-04-10 01:03 41.52171 44.61486 7987 ft 279 kts 102°
2026-04-10 01:03 41.51843 44.63991 7615 ft 276 kts 102°
2026-04-10 01:03 41.51513 44.66496 7284 ft 272 kts 101°
2026-04-10 01:03 41.51190 44.68950 7048 ft 264 kts 101°
2026-04-10 01:04 41.50877 44.71354 6867 ft 263 kts 101°
2026-04-10 01:04 41.50568 44.73750 6650 ft 260 kts 101°
2026-04-10 01:04 41.50261 44.76135 6491 ft 261 kts 101°
2026-04-10 01:04 41.49954 44.78517 6324 ft 260 kts 101°
2026-04-10 01:05 41.49650 44.80861 6166 ft 260 kts 101°
2026-04-10 01:05 41.49342 44.83236 6008 ft 260 kts 100°
2026-04-10 01:05 41.49032 44.85613 5854 ft 260 kts 100°
2026-04-10 01:05 41.48722 44.87989 5697 ft 260 kts 100°
2026-04-10 01:06 41.48413 44.90362 5540 ft 260 kts 100°
2026-04-10 01:06 41.48103 44.92731 5369 ft 259 kts 100°
2026-04-10 01:06 41.47791 44.95102 5208 ft 259 kts 100°
2026-04-10 01:06 41.47481 44.97466 5057 ft 259 kts 100°
2026-04-10 01:07 41.47175 44.99794 4982 ft 250 kts 100°
2026-04-10 01:07 41.46886 45.01997 4903 ft 239 kts 100°
2026-04-10 01:07 41.46606 45.04130 4752 ft 230 kts 100°
2026-04-10 01:07 41.46659 45.06217 4500 ft 225 kts 72°
2026-04-10 01:08 41.47526 45.08004 4484 ft 241 kts 49°
2026-04-10 01:08 41.48659 45.09625 4437 ft 235 kts 48°
2026-04-10 01:08 41.49762 45.11177 4249 ft 227 kts 48°
2026-04-10 01:08 41.50882 45.12575 4094 ft 215 kts 31°
2026-04-10 01:09 41.52279 45.12899 3969 ft 203 kts 345°
2026-04-10 01:09 41.53428 45.11992 3980 ft 195 kts 319°
2026-04-10 01:09 41.54414 45.10726 3976 ft 196 kts 315°
2026-04-10 01:09 41.55388 45.09454 3987 ft 196 kts 316°
2026-04-10 01:10 41.56381 45.08211 3979 ft 195 kts 317°
2026-04-10 01:10 41.57359 45.06992 3915 ft 189 kts 317°
2026-04-10 01:10 41.58299 45.05825 3693 ft 183 kts 317°
2026-04-10 01:10 41.59224 45.04675 3404 ft 179 kts 317°
2026-04-10 01:11 41.60104 45.03581 3141 ft 166 kts 317°
2026-04-10 01:11 41.60913 45.02575 2879 ft 161 kts 317°
2026-04-10 01:11 41.61727 45.01563 2656 ft 154 kts 317°
2026-04-10 01:11 41.62462 45.00648 2451 ft 136 kts 317°
2026-04-10 01:12 41.63137 44.99810 2296 ft 133 kts 317°
2026-04-10 01:12 41.63821 44.98967 2118 ft 135 kts 317°
2026-04-10 01:12 41.64515 44.98106 1934 ft 137 kts 317°
2026-04-10 01:12 41.65216 44.97238 1725 ft 138 kts 317°
2026-04-10 01:13 41.65913 44.96366 1550 ft 141 kts 317°
2026-04-10 01:13 41.66552 44.95568 1524 ft 100 kts 317°
2026-04-10 01:13 41.66896 44.95136 1522 ft 43 kts 316°
2026-04-10 01:13 41.67112 44.94863 1524 ft 42 kts 317°
2026-04-10 01:14 41.67318 44.94602 1523 ft 40 kts 316°
2026-04-10 01:14 41.67474 44.94409 1524 ft 23 kts 324°
2026-04-10 01:14 41.67529 44.94427 1519 ft 6 kts 69°
2026-04-10 01:14 41.67548 44.94507 1522 ft 13 kts 71°
2026-04-10 01:15 41.67584 44.94651 1525 ft 20 kts 70°
2026-04-10 01:15 41.67634 44.94850 1524 ft 25 kts 73°
2026-04-10 01:15 41.67661 44.95036 1523 ft 15 kts 108°
2026-04-10 01:15 41.67594 44.95141 1521 ft 15 kts 134°
2026-04-10 01:16 41.67522 44.95244 1523 ft 15 kts 131°
2026-04-10 01:16 41.67454 44.95348 1521 ft 15 kts 130°
2026-04-10 01:16 41.67389 44.95450 1525 ft 14 kts 131°
2026-04-10 01:17 41.67255 44.95637 1526 ft 14 kts 134°
2026-04-10 01:17 41.67189 44.95729 1524 ft 14 kts 135°
2026-04-10 01:17 41.67124 44.95817 1524 ft 13 kts 134°
2026-04-10 01:17 41.67072 44.95901 1525 ft 10 kts 117°
2026-04-10 01:18 41.67044 44.95962 1521 ft 7 kts 130°
2026-04-10 01:18 41.67009 44.96013 1521 ft 10 kts 133°
2026-04-10 01:18 41.66951 44.96097 1523 ft 14 kts 133°
2026-04-10 01:18 41.66878 44.96208 1524 ft 17 kts 133°
2026-04-10 01:19 41.66824 44.96288 1522 ft 9 kts 133°
2026-04-10 01:19 41.66813 44.96320 1521 ft 4 kts 93°
2026-04-10 01:19 41.66785 44.96359 1524 ft 1 kts 118°
2026-04-10 01:19 41.66786 44.96390 1523 ft 5 kts 72°
2026-04-10 01:20 41.66809 44.96425 1523 ft 6 kts 44°
2026-04-10 01:20 41.66826 44.96447 1520 ft 1 kts 44°
2026-04-10 01:20 41.66832 44.96454 1522 ft 2 kts 44°
2026-04-10 01:20 41.66832 44.96455 1522 ft 0 kts 44°